createdAt,value
2023-03-04T00:01:11.702Z,100396.19
2023-03-04T00:03:39.674Z,100392.09
2023-03-04T00:06:07.939Z,100402.00
2023-03-04T00:08:36.196Z,100402.75
2023-03-04T00:11:04.284Z,100401.22
2023-03-04T00:13:32.278Z,100387.41
2023-03-04T00:15:59.946Z,100394.28
2023-03-04T00:18:27.793Z,100391.31
2023-03-04T00:20:55.521Z,100389.91
2023-03-04T00:23:23.391Z,100386.91
2023-03-04T00:25:51.117Z,100388.16
2023-03-04T00:28:19.786Z,100382.38
2023-03-04T00:30:47.449Z,100379.56
2023-03-04T00:33:15.748Z,100384.88
2023-03-04T00:35:43.443Z,100381.44
2023-03-04T00:38:11.230Z,100384.88
2023-03-04T00:40:38.760Z,100380.91
2023-03-04T00:43:06.634Z,100380.91
2023-03-04T00:45:34.155Z,100369.44
2023-03-04T00:48:02.209Z,100366.31
2023-03-04T00:50:29.676Z,100366.66
2023-03-04T00:52:57.964Z,100370.13
2023-03-04T00:55:25.490Z,100368.69
2023-03-04T00:57:53.767Z,100364.94
2023-03-04T01:00:21.772Z,100364.78
2023-03-04T01:02:49.653Z,100357.22
2023-03-04T01:05:17.554Z,100369.13
2023-03-04T01:07:45.435Z,100366.16
2023-03-04T01:10:15.665Z,100366.28
2023-03-04T01:12:43.963Z,100361.44
2023-03-04T01:15:14.079Z,100358.44
2023-03-04T01:17:42.201Z,100357.97
2023-03-04T01:20:11.039Z,100351.69
2023-03-04T01:22:38.887Z,100358.13
2023-03-04T01:25:07.802Z,100356.25
2023-03-04T01:27:35.631Z,100355.47
2023-03-04T01:30:04.424Z,100364.69
2023-03-04T01:32:32.370Z,100365.16
2023-03-04T01:34:59.896Z,100362.03
2023-03-04T01:37:27.643Z,100360.97
2023-03-04T01:39:55.206Z,100377.75
2023-03-04T01:42:26.369Z,100376.84
2023-03-04T01:44:54.306Z,100371.66
2023-03-04T01:47:25.743Z,100365.22
2023-03-04T01:49:56.528Z,100365.06
2023-03-04T01:52:27.359Z,100363.19
2023-03-04T01:54:56.288Z,100360.81
2023-03-04T01:57:26.632Z,100366.78
2023-03-04T02:00:22.676Z,100368.97
2023-03-04T02:02:58.033Z,100366.00
2023-03-04T02:05:28.053Z,100365.78
2023-03-04T02:07:58.460Z,100365.31
2023-03-04T02:10:26.447Z,100356.84
2023-03-04T02:12:54.573Z,100351.50
2023-03-04T02:15:23.002Z,100358.91
2023-03-04T02:17:50.981Z,100351.06
2023-03-04T02:20:41.663Z,100351.97
2023-03-04T02:23:37.502Z,100350.28
2023-03-04T02:26:10.237Z,100351.53
2023-03-04T02:28:38.307Z,100352.94
2023-03-04T02:31:06.503Z,100344.28
2023-03-04T02:33:34.606Z,100350.66
2023-03-04T02:36:02.121Z,100352.69
2023-03-04T02:38:30.286Z,100345.81
2023-03-04T02:40:58.444Z,100355.19
2023-03-04T02:43:26.925Z,100357.69
2023-03-04T02:45:54.508Z,100347.81
2023-03-04T02:48:24.407Z,100343.91
2023-03-04T02:50:54.178Z,100343.44
2023-03-04T02:53:22.493Z,100350.47
2023-03-04T02:55:50.477Z,100344.97
2023-03-04T02:58:20.373Z,100341.84
2023-03-04T03:00:48.505Z,100340.75
2023-03-04T03:03:16.685Z,100340.94
2023-03-04T03:05:44.620Z,100342.66
2023-03-04T03:08:12.609Z,100339.38
2023-03-04T03:10:41.595Z,100343.00
2023-03-04T03:13:09.731Z,100340.50
2023-03-04T03:15:42.243Z,100343.34
2023-03-04T03:18:11.042Z,100333.00
2023-03-04T03:20:38.816Z,100346.34
2023-03-04T03:23:06.778Z,100341.31
2023-03-04T03:25:34.452Z,100334.88
2023-03-04T03:28:02.401Z,100332.69
2023-03-04T03:30:30.094Z,100334.75
2023-03-04T03:32:58.152Z,100342.13
2023-03-04T03:35:26.002Z,100343.06
2023-03-04T03:37:53.907Z,100341.81
2023-03-04T03:40:21.395Z,100335.38
2023-03-04T03:42:49.259Z,100349.34
2023-03-04T03:45:16.953Z,100335.38
2023-03-04T03:47:45.235Z,100339.00
2023-03-04T03:50:12.866Z,100338.50
2023-03-04T03:52:40.688Z,100341.19
2023-03-04T03:55:09.354Z,100336.50
2023-03-04T03:57:37.201Z,100330.34
2023-03-04T04:00:07.272Z,100341.50
2023-03-04T04:02:41.138Z,100341.81
2023-03-04T04:05:10.660Z,100334.13
2023-03-04T04:07:38.844Z,100330.19
2023-03-04T04:10:06.891Z,100325.66
2023-03-04T04:12:35.034Z,100327.84
2023-03-04T04:15:02.584Z,100327.06
2023-03-04T04:17:30.425Z,100328.00
2023-03-04T04:19:57.974Z,100320.47
2023-03-04T04:22:25.767Z,100322.19
2023-03-04T04:24:53.506Z,100325.31
2023-03-04T04:27:21.429Z,100323.25
2023-03-04T04:29:48.851Z,100318.13
2023-03-04T04:32:16.889Z,100322.97
2023-03-04T04:34:44.351Z,100319.81
2023-03-04T04:37:12.265Z,100316.22
2023-03-04T04:39:39.822Z,100326.59
2023-03-04T04:42:07.593Z,100316.06
2023-03-04T04:44:35.093Z,100323.47
2023-03-04T04:47:03.096Z,100323.63
2023-03-04T04:49:30.640Z,100323.75
2023-03-04T04:51:58.761Z,100312.94
2023-03-04T04:54:26.348Z,100321.38
2023-03-04T04:56:54.319Z,100317.28
2023-03-04T04:59:22.156Z,100321.19
2023-03-04T05:01:50.057Z,100316.34
2023-03-04T05:04:17.580Z,100313.19
2023-03-04T05:06:45.441Z,100324.81
2023-03-04T05:09:13.374Z,100312.25
2023-03-04T05:11:41.176Z,100312.88
2023-03-04T05:14:08.774Z,100313.06
2023-03-04T05:16:36.600Z,100301.91
2023-03-04T05:19:04.516Z,100305.25
2023-03-04T05:21:32.566Z,100321.25
2023-03-04T05:24:00.006Z,100308.84
2023-03-04T05:26:27.937Z,100309.13
2023-03-04T05:28:55.444Z,100315.53
2023-03-04T05:31:23.567Z,100312.84
2023-03-04T05:33:51.079Z,100308.78
2023-03-04T05:36:19.004Z,100313.31
2023-03-04T05:38:46.589Z,100316.94
2023-03-04T05:41:14.524Z,100318.22
2023-03-04T05:43:43.053Z,100315.25
2023-03-04T05:46:16.382Z,100314.34
2023-03-04T05:48:45.059Z,100315.00
2023-03-04T05:51:12.898Z,100328.50
2023-03-04T05:53:41.812Z,100323.63
2023-03-04T05:56:19.889Z,100322.69
2023-03-04T05:58:50.590Z,100331.31
2023-03-04T06:01:18.605Z,100330.88
2023-03-04T06:03:48.704Z,100336.06
2023-03-04T06:06:17.091Z,100338.72
2023-03-04T06:08:44.553Z,100340.28
2023-03-04T06:11:12.368Z,100342.31
2023-03-04T06:13:40.297Z,100336.03
2023-03-04T06:16:08.556Z,100336.19
2023-03-04T06:18:36.251Z,100348.28
2023-03-04T06:21:05.072Z,100339.66
2023-03-04T06:23:32.603Z,100339.94
2023-03-04T06:26:01.947Z,100347.66
2023-03-04T06:28:30.315Z,100345.13
2023-03-04T06:30:58.663Z,100348.56
2023-03-04T06:33:26.598Z,100352.34
2023-03-04T06:35:57.171Z,100349.66
2023-03-04T06:38:26.429Z,100348.72
2023-03-04T06:40:57.145Z,100356.09
2023-03-04T06:43:25.324Z,100347.94
2023-03-04T06:45:53.114Z,100347.16
2023-03-04T06:48:20.586Z,100350.63
2023-03-04T06:50:48.359Z,100345.91
2023-03-04T06:53:16.146Z,100346.06
2023-03-04T06:55:43.956Z,100356.13
2023-03-04T06:58:11.420Z,100352.19
2023-03-04T07:00:39.461Z,100351.75
2023-03-04T07:03:06.935Z,100347.16
2023-03-04T07:05:34.777Z,100359.28
2023-03-04T07:08:02.311Z,100348.78
2023-03-04T07:10:30.501Z,100347.19
2023-03-04T07:12:58.210Z,100357.41
2023-03-04T07:15:26.004Z,100358.66
2023-03-04T07:17:53.530Z,100350.66
2023-03-04T07:20:21.761Z,100350.66
2023-03-04T07:22:49.279Z,100350.78
2023-03-04T07:25:18.155Z,100353.63
2023-03-04T07:27:45.679Z,100350.03
2023-03-04T07:30:14.159Z,100356.78
2023-03-04T07:32:42.252Z,100354.25
2023-03-04T07:35:10.355Z,100352.53
2023-03-04T07:37:37.828Z,100344.38
2023-03-04T07:40:08.256Z,100350.66
2023-03-04T07:42:35.951Z,100347.97
2023-03-04T07:45:10.627Z,100349.84
2023-03-04T07:47:39.897Z,100341.84
2023-03-04T07:50:09.162Z,100336.19
2023-03-04T07:52:42.154Z,100350.97
2023-03-04T07:55:12.368Z,100341.53
2023-03-04T07:57:45.244Z,100352.50
2023-03-04T08:00:16.558Z,100342.16
2023-03-04T08:02:44.418Z,100352.34
2023-03-04T08:05:13.509Z,100338.34
2023-03-04T08:07:43.362Z,100339.28
2023-03-04T08:10:12.236Z,100341.00
2023-03-04T08:12:40.331Z,100342.28
2023-03-04T08:15:09.525Z,100344.66
2023-03-04T08:17:38.466Z,100343.09
2023-03-04T08:20:07.797Z,100337.31
2023-03-04T08:22:35.557Z,100338.53
2023-03-04T08:25:03.830Z,100335.38
2023-03-04T08:27:31.530Z,100335.88
2023-03-04T08:29:59.575Z,100340.75
2023-03-04T08:32:27.522Z,100330.53
2023-03-04T08:34:57.041Z,100335.56
2023-03-04T08:37:24.690Z,100327.69
2023-03-04T08:39:52.603Z,100340.88
2023-03-04T08:42:20.260Z,100324.22
2023-03-04T08:44:48.180Z,100326.91
2023-03-04T08:47:16.156Z,100324.22
2023-03-04T08:49:44.265Z,100330.16
2023-03-04T08:52:11.831Z,100329.34
2023-03-04T08:54:39.703Z,100328.53
2023-03-04T08:57:07.952Z,100327.91
2023-03-04T08:59:38.158Z,100327.56
2023-03-04T09:02:06.256Z,100320.91
2023-03-04T09:04:34.332Z,100325.53
2023-03-04T09:07:01.854Z,100329.69
2023-03-04T09:09:30.178Z,100328.59
2023-03-04T09:11:58.428Z,100332.38
2023-03-04T09:14:26.365Z,100333.56
2023-03-04T09:16:54.050Z,100328.66
2023-03-04T09:19:22.177Z,100334.41
2023-03-04T09:21:49.785Z,100326.94
2023-03-04T09:24:17.756Z,100326.66
2023-03-04T09:26:46.108Z,100322.25
2023-03-04T09:29:14.128Z,100328.34
2023-03-04T09:31:41.726Z,100320.75
2023-03-04T09:34:09.822Z,100323.56
2023-03-04T09:36:37.482Z,100326.81
2023-03-04T09:39:06.660Z,100329.28
2023-03-04T09:41:50.619Z,100320.13
2023-03-04T09:44:38.082Z,100323.56
2023-03-04T09:47:17.979Z,100328.66
2023-03-04T09:50:00.825Z,100322.50
2023-03-04T09:52:46.765Z,100329.22
2023-03-04T09:55:28.359Z,100312.34
2023-03-04T09:58:17.061Z,100317.25
2023-03-04T10:01:17.438Z,100316.41
2023-03-04T10:04:05.809Z,100307.53
2023-03-04T10:06:34.572Z,100312.31
2023-03-04T10:09:26.360Z,100305.72
2023-03-04T10:12:13.840Z,100296.00
2023-03-04T10:14:58.585Z,100300.03
2023-03-04T10:17:42.850Z,100307.44
2023-03-04T10:20:21.311Z,100296.41
2023-03-04T10:22:59.134Z,100299.06
2023-03-04T10:25:30.689Z,100298.94
2023-03-04T10:28:20.638Z,100288.91
2023-03-04T10:31:13.861Z,100285.28
2023-03-04T10:33:42.642Z,100279.81
2023-03-04T10:36:31.390Z,100278.31
2023-03-04T10:39:07.185Z,100278.56
2023-03-04T10:41:34.991Z,100267.66
2023-03-04T10:44:05.728Z,100266.66
2023-03-04T10:46:36.033Z,100266.13
2023-03-04T10:49:04.961Z,100264.56
2023-03-04T10:51:33.642Z,100263.34
2023-03-04T10:54:10.952Z,100249.41
2023-03-04T10:56:53.446Z,100251.34
2023-03-04T10:59:37.000Z,100253.44
2023-03-04T11:02:24.439Z,100249.22
2023-03-04T11:05:21.706Z,100244.78
2023-03-04T11:07:57.290Z,100236.28
2023-03-04T11:10:38.291Z,100234.50
2023-03-04T11:13:12.079Z,100228.91
2023-03-04T11:15:58.184Z,100223.56
2023-03-04T11:18:51.262Z,100224.69
2023-03-04T11:21:26.951Z,100225.31
2023-03-04T11:24:25.759Z,100226.34
2023-03-04T11:27:13.271Z,100219.09
2023-03-04T11:30:23.938Z,100198.78
2023-03-04T11:33:07.267Z,100195.75
2023-03-04T11:36:30.384Z,100198.97
2023-03-04T11:39:00.596Z,100188.09
2023-03-04T11:41:35.938Z,100190.66
2023-03-04T11:44:09.019Z,100186.88
2023-03-04T11:46:43.689Z,100190.66
2023-03-04T11:49:17.361Z,100179.06
2023-03-04T11:52:03.845Z,100188.09
2023-03-04T11:55:18.524Z,100180.28
2023-03-04T11:58:16.291Z,100169.69
2023-03-04T12:01:03.670Z,100165.56
2023-03-04T12:04:03.747Z,100172.34
2023-03-04T12:07:11.316Z,100164.97
2023-03-04T12:09:49.531Z,100165.31
2023-03-04T12:12:53.919Z,100153.31
2023-03-04T12:15:41.681Z,100150.16
2023-03-04T12:18:39.554Z,100146.44
2023-03-04T12:21:42.635Z,100161.53
2023-03-04T12:24:42.988Z,100145.41
2023-03-04T12:27:45.666Z,100139.19
2023-03-04T12:30:50.131Z,100139.53
2023-03-04T12:34:02.445Z,100133.22
2023-03-04T12:37:05.402Z,100124.53
2023-03-04T12:40:06.811Z,100134.91
2023-03-04T12:42:51.664Z,100123.50
2023-03-04T12:45:30.677Z,100119.56
2023-03-04T12:48:35.180Z,100121.09
2023-03-04T12:51:49.625Z,100115.38
2023-03-04T12:54:31.363Z,100114.88
2023-03-04T12:57:24.106Z,100106.19
2023-03-04T13:00:12.880Z,100102.72
2023-03-04T13:03:10.792Z,100107.97
2023-03-04T13:05:46.040Z,100100.25
2023-03-04T13:08:28.284Z,100097.00
2023-03-04T13:11:04.100Z,100094.91
2023-03-04T13:14:00.635Z,100090.53
2023-03-04T13:16:40.896Z,100096.16
2023-03-04T13:19:47.234Z,100087.66
2023-03-04T13:22:39.295Z,100084.56
2023-03-04T13:25:39.611Z,100088.78
2023-03-04T13:28:21.292Z,100084.31
2023-03-04T13:30:55.887Z,100077.63
2023-03-04T13:33:23.753Z,100083.13
2023-03-04T13:36:00.187Z,100077.09
2023-03-04T13:38:28.221Z,100080.53
2023-03-04T13:41:25.017Z,100072.69
2023-03-04T13:44:23.336Z,100066.03
2023-03-04T13:46:51.037Z,100071.72
2023-03-04T13:49:24.831Z,100057.63
2023-03-04T13:51:53.021Z,100057.09
2023-03-04T13:54:30.107Z,100057.53
2023-03-04T13:57:00.489Z,100047.78
2023-03-04T13:59:50.833Z,100050.72
2023-03-04T14:02:22.812Z,100042.66
2023-03-04T14:05:00.319Z,100042.75
2023-03-04T14:07:37.205Z,100039.84
2023-03-04T14:10:19.508Z,100044.88
2023-03-04T14:12:59.165Z,100040.09
2023-03-04T14:15:30.227Z,100038.56
2023-03-04T14:18:05.864Z,100031.91
2023-03-04T14:20:42.817Z,100034.13
2023-03-04T14:23:32.328Z,100027.41
2023-03-04T14:26:18.368Z,100024.53
2023-03-04T14:28:57.785Z,100027.31
2023-03-04T14:31:30.364Z,100017.25
2023-03-04T14:34:02.420Z,100019.59
2023-03-04T14:36:34.631Z,100023.16
2023-03-04T14:39:06.910Z,100019.38
2023-03-04T14:41:39.736Z,100022.44
2023-03-04T14:44:18.093Z,100015.41
2023-03-04T14:47:06.509Z,100017.56
2023-03-04T14:49:38.420Z,100008.03
2023-03-04T14:52:07.350Z,100012.28
2023-03-04T14:54:40.890Z,100010.53
2023-03-04T14:57:36.008Z,100009.66
2023-03-04T15:00:22.774Z,100008.84
2023-03-04T15:03:24.621Z,100004.50
2023-03-04T15:05:56.018Z,100000.56
2023-03-04T15:08:38.397Z,100003.00
2023-03-04T15:11:09.020Z,99998.66
2023-03-04T15:13:53.693Z,99999.31
2023-03-04T15:16:28.160Z,99993.47
2023-03-04T15:19:24.891Z,99987.19
2023-03-04T15:22:02.562Z,99982.06
2023-03-04T15:24:30.433Z,99981.41
2023-03-04T15:26:58.223Z,99974.88
2023-03-04T15:29:26.476Z,99984.84
2023-03-04T15:31:54.111Z,99980.75
2023-03-04T15:34:22.114Z,99975.56
2023-03-04T15:36:51.164Z,99972.03
2023-03-04T15:39:21.786Z,99974.84
2023-03-04T15:41:50.717Z,99973.44
2023-03-04T15:44:19.195Z,99983.03
2023-03-04T15:46:47.239Z,99973.88
2023-03-04T15:49:16.088Z,99971.16
2023-03-04T15:51:43.831Z,99969.69
2023-03-04T15:54:14.150Z,99981.28
2023-03-04T15:56:43.087Z,99972.53
2023-03-04T15:59:14.320Z,99968.19
2023-03-04T16:01:42.174Z,99971.34
2023-03-04T16:04:19.359Z,99970.78
2023-03-04T16:06:48.970Z,99960.97
2023-03-04T16:09:19.849Z,99958.66
2023-03-04T16:11:48.222Z,99973.25
2023-03-04T16:14:17.228Z,99972.22
2023-03-04T16:16:46.673Z,99964.69
2023-03-04T16:19:15.162Z,99964.50
2023-03-04T16:21:42.876Z,99958.28
2023-03-04T16:24:19.582Z,99965.44
2023-03-04T16:26:47.864Z,99971.28
2023-03-04T16:29:16.649Z,99965.56
2023-03-04T16:31:44.595Z,99963.13
2023-03-04T16:34:12.960Z,99965.59
2023-03-04T16:36:40.844Z,99965.41
2023-03-04T16:39:20.889Z,99970.56
2023-03-04T16:41:49.028Z,99975.81
2023-03-04T16:44:16.963Z,99971.03
2023-03-04T16:46:44.749Z,99971.63
2023-03-04T16:49:12.671Z,99965.97
2023-03-04T16:51:45.600Z,99967.72
2023-03-04T16:54:32.029Z,99964.19
2023-03-04T16:57:00.853Z,99966.75
2023-03-04T16:59:29.542Z,99967.75
2023-03-04T17:01:57.840Z,99964.97
2023-03-04T17:04:25.963Z,99960.63
2023-03-04T17:06:54.254Z,99962.88
2023-03-04T17:09:24.335Z,99958.97
2023-03-04T17:11:53.230Z,99954.25
2023-03-04T17:14:21.210Z,99948.69
2023-03-04T17:16:48.939Z,99948.13
2023-03-04T17:19:17.256Z,99963.09
2023-03-04T17:21:44.943Z,99952.63
2023-03-04T17:24:13.208Z,99946.34
2023-03-04T17:26:42.669Z,99944.81
2023-03-04T17:29:10.650Z,99945.13
2023-03-04T17:31:38.267Z,99953.16
2023-03-04T17:34:06.295Z,99942.34
2023-03-04T17:36:34.886Z,99951.47
2023-03-04T17:39:04.934Z,99941.44
2023-03-04T17:41:34.368Z,99952.81
2023-03-04T17:44:05.881Z,99948.13
2023-03-04T17:46:43.279Z,99945.47
2023-03-04T17:49:15.868Z,99943.91
2023-03-04T17:51:44.954Z,99951.81
2023-03-04T17:54:12.812Z,99938.31
2023-03-04T17:56:43.466Z,99940.78
2023-03-04T17:59:17.184Z,99947.22
2023-03-04T18:01:46.214Z,99946.56
2023-03-04T18:04:14.969Z,99947.22
2023-03-04T18:06:42.897Z,99946.28
2023-03-04T18:09:11.047Z,99945.19
2023-03-04T18:11:40.322Z,99948.31
2023-03-04T18:14:08.750Z,99945.09
2023-03-04T18:16:36.447Z,99933.63
2023-03-04T18:19:04.934Z,99939.09
2023-03-04T18:21:33.451Z,99938.97
2023-03-04T18:24:02.267Z,99940.41
2023-03-04T18:26:29.833Z,99954.44
2023-03-04T18:28:58.006Z,99940.16
2023-03-04T18:31:32.233Z,99944.75
2023-03-04T18:34:02.342Z,99944.00
2023-03-04T18:36:30.659Z,99944.88
2023-03-04T18:38:59.690Z,99943.00
2023-03-04T18:41:28.004Z,99945.22
2023-03-04T18:43:56.799Z,99949.91
2023-03-04T18:46:53.867Z,99949.00
2023-03-04T18:49:21.857Z,99948.75
2023-03-04T18:51:49.359Z,99951.19
2023-03-04T18:54:18.423Z,99942.59
2023-03-04T18:56:56.761Z,99950.19
2023-03-04T18:59:40.927Z,99944.66
2023-03-04T19:02:39.581Z,99955.88
2023-03-04T19:05:20.256Z,99943.28
2023-03-04T19:07:47.889Z,99955.13
2023-03-04T19:10:17.672Z,99948.56
2023-03-04T19:12:45.073Z,99946.81
2023-03-04T19:15:14.340Z,99948.88
2023-03-04T19:17:45.303Z,99949.22
2023-03-04T19:20:14.476Z,99944.34
2023-03-04T19:22:42.278Z,99952.53
2023-03-04T19:25:11.028Z,99949.88
2023-03-04T19:27:39.170Z,99947.53
2023-03-04T19:30:09.978Z,99950.97
2023-03-04T19:32:38.268Z,99952.28
2023-03-04T19:35:08.325Z,99961.34
2023-03-04T19:37:35.938Z,99957.75
2023-03-04T19:40:04.975Z,99965.56
2023-03-04T19:42:34.214Z,99968.53
2023-03-04T19:45:03.706Z,99972.97
2023-03-04T19:47:31.288Z,99966.13
2023-03-04T19:49:59.070Z,99968.34
2023-03-04T19:52:26.690Z,99974.00
2023-03-04T19:54:54.702Z,99968.81
2023-03-04T19:57:22.212Z,99977.44
2023-03-04T19:59:50.721Z,99976.34
2023-03-04T20:02:18.338Z,99980.28
2023-03-04T20:04:46.432Z,99977.00
2023-03-04T20:07:14.098Z,99974.78
2023-03-04T20:09:41.896Z,99980.63
2023-03-04T20:12:09.526Z,99982.81
2023-03-04T20:14:37.446Z,99979.38
2023-03-04T20:17:07.047Z,99991.94
2023-03-04T20:19:37.080Z,99985.66
2023-03-04T20:22:07.078Z,99989.59
2023-03-04T20:24:35.085Z,99990.03
2023-03-04T20:27:03.050Z,99988.63
2023-03-04T20:29:31.028Z,99998.69
2023-03-04T20:31:58.886Z,99992.44
2023-03-04T20:34:27.267Z,99991.03
2023-03-04T20:36:54.861Z,99995.91
2023-03-04T20:39:29.077Z,99987.19
2023-03-04T20:41:58.727Z,99988.47
2023-03-04T20:44:27.134Z,99974.81
2023-03-04T20:46:54.609Z,99991.44
2023-03-04T20:49:26.737Z,99979.38
2023-03-04T20:52:00.290Z,99986.09
2023-03-04T20:54:28.164Z,99986.09
2023-03-04T20:56:56.249Z,99991.44
2023-03-04T20:59:25.568Z,99995.19
2023-03-04T21:01:53.294Z,99986.53
2023-03-04T21:04:21.415Z,99994.22
2023-03-04T21:06:50.751Z,99977.56
2023-03-04T21:09:22.515Z,99991.34
2023-03-04T21:11:51.590Z,99987.59
2023-03-04T21:14:25.882Z,99994.66
2023-03-04T21:17:00.520Z,99987.72
2023-03-04T21:19:32.481Z,99993.53
2023-03-04T21:22:01.020Z,99999.88
2023-03-04T21:24:32.861Z,99989.38
2023-03-04T21:27:01.714Z,99998.63
2023-03-04T21:29:29.585Z,99994.72
2023-03-04T21:32:22.756Z,99998.66
2023-03-04T21:34:52.954Z,99996.19
2023-03-04T21:37:25.646Z,99988.69
2023-03-04T21:39:55.115Z,99991.34
2023-03-04T21:42:22.900Z,99989.44
2023-03-04T21:44:51.796Z,100005.31
2023-03-04T21:47:21.211Z,99992.13
2023-03-04T21:49:49.443Z,99993.38
2023-03-04T21:52:19.916Z,100000.44
2023-03-04T21:54:48.670Z,99990.91
2023-03-04T21:57:16.774Z,99991.56
2023-03-04T21:59:44.917Z,99987.28
2023-03-04T22:02:17.704Z,99991.38
2023-03-04T22:04:46.266Z,99989.19
2023-03-04T22:07:14.496Z,99975.09
2023-03-04T22:09:42.358Z,99974.28
2023-03-04T22:12:10.267Z,99975.91
2023-03-04T22:14:38.060Z,99971.38
2023-03-04T22:17:06.052Z,99980.16
2023-03-04T22:19:33.988Z,99983.75
2023-03-04T22:22:01.812Z,99988.16
2023-03-04T22:24:29.683Z,99994.91
2023-03-04T22:26:57.776Z,99994.44
2023-03-04T22:29:25.847Z,99988.63
2023-03-04T22:31:53.416Z,99984.84
2023-03-04T22:34:21.353Z,99987.69
2023-03-04T22:36:49.464Z,99984.56
2023-03-04T22:39:19.669Z,99990.22
2023-03-04T22:41:47.986Z,99978.00
2023-03-04T22:44:16.331Z,99984.75
2023-03-04T22:46:44.020Z,99988.50
2023-03-04T22:49:13.989Z,99978.63
2023-03-04T22:51:44.021Z,99984.09
2023-03-04T22:54:17.405Z,99987.72
2023-03-04T22:56:45.586Z,99991.19
2023-03-04T22:59:14.132Z,99986.47
2023-03-04T23:01:42.141Z,99990.41
2023-03-04T23:04:10.101Z,99986.16
2023-03-04T23:06:37.878Z,99982.25
2023-03-04T23:09:05.918Z,99988.53
2023-03-04T23:11:35.676Z,99994.00
2023-03-04T23:14:07.570Z,99985.56
2023-03-04T23:16:43.311Z,99986.63
2023-03-04T23:19:16.671Z,99985.25
2023-03-04T23:21:44.929Z,99978.03
2023-03-04T23:24:14.041Z,99985.84
2023-03-04T23:26:42.867Z,99981.28
2023-03-04T23:29:14.722Z,99980.66
2023-03-04T23:31:44.410Z,99986.59
2023-03-04T23:34:12.952Z,99989.44
2023-03-04T23:36:41.072Z,99989.44
2023-03-04T23:39:10.184Z,99991.78
2023-03-04T23:41:38.670Z,99985.69
2023-03-04T23:44:08.275Z,99986.78
2023-03-04T23:46:37.798Z,99982.41
2023-03-04T23:49:12.590Z,99991.16
2023-03-04T23:51:41.031Z,99991.94
2023-03-04T23:54:09.048Z,99997.75
2023-03-04T23:56:36.911Z,99990.09
2023-03-04T23:59:05.276Z,99995.72
